createdAt,value
2018-08-09T00:01:25.567Z,51.60
2018-08-09T00:03:53.978Z,51.60
2018-08-09T00:06:22.345Z,51.70
2018-08-09T00:08:50.788Z,51.60
2018-08-09T00:11:19.225Z,51.50
2018-08-09T00:13:47.785Z,51.60
2018-08-09T00:16:16.167Z,51.80
2018-08-09T00:18:44.705Z,51.80
2018-08-09T00:21:13.081Z,51.80
2018-08-09T00:23:41.514Z,52.50
2018-08-09T00:26:09.952Z,52.10
2018-08-09T00:28:38.451Z,52.40
2018-08-09T00:31:07.373Z,52.50
2018-08-09T00:33:35.736Z,52.60
2018-08-09T00:36:04.089Z,52.50
2018-08-09T00:38:32.492Z,52.50
2018-08-09T00:41:00.838Z,52.60
2018-08-09T00:43:29.303Z,52.50
2018-08-09T00:45:57.665Z,52.50
2018-08-09T00:48:26.067Z,52.70
2018-08-09T00:50:54.433Z,53.00
2018-08-09T00:53:22.867Z,52.80
2018-08-09T00:55:51.244Z,52.70
2018-08-09T00:58:19.646Z,52.70
2018-08-09T01:00:48.032Z,52.90
2018-08-09T01:03:16.396Z,52.90
2018-08-09T01:05:44.762Z,52.90
2018-08-09T01:08:13.207Z,52.90
2018-08-09T01:10:41.595Z,53.20
2018-08-09T01:13:09.977Z,53.10
2018-08-09T01:15:38.420Z,53.10
2018-08-09T01:18:08.422Z,53.50
2018-08-09T01:20:36.879Z,53.90
2018-08-09T01:23:05.392Z,53.40
2018-08-09T01:25:33.807Z,53.60
2018-08-09T01:28:02.166Z,54.00
2018-08-09T01:30:30.639Z,54.40
2018-08-09T01:32:59.155Z,54.60
2018-08-09T01:35:27.499Z,54.80
2018-08-09T01:37:56.008Z,55.20
2018-08-09T01:40:24.411Z,55.10
2018-08-09T01:43:04.101Z,55.30
2018-08-09T01:45:32.501Z,55.00
2018-08-09T01:48:00.889Z,55.00
2018-08-09T01:50:29.278Z,55.30
2018-08-09T01:52:57.674Z,55.60
2018-08-09T01:55:26.055Z,55.80
2018-08-09T01:57:54.454Z,55.80
2018-08-09T02:00:22.858Z,56.10
2018-08-09T02:02:51.255Z,56.60
2018-08-09T02:05:19.656Z,56.90
2018-08-09T02:07:48.096Z,57.00
2018-08-09T02:10:16.553Z,57.00
2018-08-09T02:12:44.952Z,57.00
2018-08-09T02:15:13.457Z,57.20
2018-08-09T02:17:41.794Z,57.30
2018-08-09T02:20:10.198Z,57.20
2018-08-09T02:22:38.601Z,57.00
2018-08-09T02:25:07.038Z,57.10
2018-08-09T02:27:35.458Z,57.50
2018-08-09T02:30:04.887Z,58.20
2018-08-09T02:32:33.244Z,59.00
2018-08-09T02:35:01.679Z,59.30
2018-08-09T02:37:30.024Z,60.10
2018-08-09T02:39:58.439Z,60.50
2018-08-09T02:42:26.877Z,61.30
2018-08-09T02:44:55.344Z,61.90
2018-08-09T02:47:23.703Z,62.50
2018-08-09T02:49:52.137Z,63.40
2018-08-09T02:52:20.482Z,63.50
2018-08-09T02:54:48.891Z,64.00
2018-08-09T02:57:17.302Z,64.10
2018-08-09T02:59:46.418Z,64.00
2018-08-09T03:02:14.880Z,65.10
2018-08-09T03:04:43.239Z,65.70
2018-08-09T03:07:11.601Z,66.50
2018-08-09T03:09:39.957Z,66.70
2018-08-09T03:12:08.406Z,66.60
2018-08-09T03:14:36.808Z,67.70
2018-08-09T03:17:05.204Z,68.30
2018-08-09T03:19:33.549Z,68.90
2018-08-09T03:22:01.918Z,69.20
2018-08-09T03:24:30.434Z,69.80
2018-08-09T03:26:58.754Z,70.00
2018-08-09T03:29:27.083Z,70.20
2018-08-09T03:31:55.770Z,69.90
2018-08-09T03:34:24.144Z,70.20
2018-08-09T03:36:52.591Z,70.50
2018-08-09T03:39:21.720Z,70.40
2018-08-09T03:41:50.182Z,70.70
2018-08-09T03:44:18.561Z,71.20
2018-08-09T03:46:46.999Z,72.20
2018-08-09T03:49:15.364Z,71.40
2018-08-09T03:51:43.888Z,71.90
2018-08-09T03:54:12.390Z,72.20
2018-08-09T03:56:40.943Z,72.40
2018-08-09T03:59:09.399Z,72.50
2018-08-09T04:01:38.082Z,72.30
2018-08-09T04:04:06.861Z,71.90
2018-08-09T04:06:35.692Z,72.00
2018-08-09T04:09:06.805Z,72.00
2018-08-09T04:11:35.216Z,72.30
2018-08-09T04:14:03.660Z,72.50
2018-08-09T04:16:32.274Z,72.60
2018-08-09T04:19:00.684Z,72.80
2018-08-09T04:21:29.199Z,73.00
2018-08-09T04:23:57.612Z,72.30
2018-08-09T04:26:26.070Z,71.80
2018-08-09T04:28:54.495Z,71.30
2018-08-09T04:31:23.523Z,70.90
2018-08-09T04:33:52.320Z,70.80
2018-08-09T04:36:20.772Z,70.70
2018-08-09T04:38:49.288Z,70.40
2018-08-09T04:41:17.728Z,70.50
2018-08-09T04:43:46.162Z,70.70
2018-08-09T04:46:14.580Z,71.00
2018-08-09T04:48:43.034Z,71.30
2018-08-09T04:51:11.466Z,71.80
2018-08-09T04:53:40.073Z,71.60
2018-08-09T04:56:08.507Z,71.90
2018-08-09T04:58:36.902Z,71.70
2018-08-09T05:01:05.376Z,71.80
2018-08-09T05:03:33.863Z,71.30
2018-08-09T05:06:02.315Z,71.30
2018-08-09T05:08:30.817Z,71.20
2018-08-09T05:10:59.328Z,70.90
2018-08-09T05:13:27.885Z,71.00
2018-08-09T05:15:56.347Z,70.60
2018-08-09T05:18:24.843Z,70.80
2018-08-09T05:20:53.251Z,70.80
2018-08-09T05:23:21.824Z,70.50
2018-08-09T05:25:50.296Z,70.20
2018-08-09T05:28:18.724Z,70.00
2018-08-09T05:30:47.130Z,70.40
2018-08-09T05:33:15.535Z,69.60
2018-08-09T05:35:44.002Z,69.10
2018-08-09T05:38:12.491Z,68.90
2018-08-09T05:40:40.976Z,68.60
2018-08-09T05:43:09.438Z,68.30
2018-08-09T05:45:37.864Z,68.00
2018-08-09T05:48:06.489Z,67.80
2018-08-09T05:50:34.880Z,67.00
2018-08-09T05:53:03.353Z,67.50
2018-08-09T05:55:31.748Z,66.60
2018-08-09T05:58:00.242Z,66.20
2018-08-09T06:00:28.626Z,65.30
2018-08-09T06:02:57.002Z,64.90
2018-08-09T06:05:25.463Z,64.70
2018-08-09T06:07:53.929Z,65.30
2018-08-09T06:10:22.310Z,64.60
2018-08-09T06:12:50.782Z,64.20
2018-08-09T06:15:19.241Z,63.60
2018-08-09T06:17:47.642Z,63.50
2018-08-09T06:20:16.039Z,63.10
2018-08-09T06:22:45.166Z,62.30
2018-08-09T06:25:13.544Z,61.90
2018-08-09T06:27:42.069Z,62.00
2018-08-09T06:30:11.379Z,60.80
2018-08-09T06:32:40.429Z,60.90
2018-08-09T06:35:10.153Z,61.20
2018-08-09T06:37:38.654Z,60.90
2018-08-09T06:40:11.526Z,60.30
2018-08-09T06:42:40.008Z,60.10
2018-08-09T06:45:08.382Z,59.80
2018-08-09T06:47:36.839Z,59.50
2018-08-09T06:50:05.718Z,59.60
2018-08-09T06:52:34.104Z,58.90
2018-08-09T06:55:02.555Z,58.40
2018-08-09T06:57:30.950Z,58.20
2018-08-09T06:59:59.352Z,57.80
2018-08-09T07:02:27.710Z,57.90
2018-08-09T07:04:56.079Z,57.50
2018-08-09T07:07:24.628Z,57.10
2018-08-09T07:09:53.026Z,56.50
2018-08-09T07:12:21.607Z,56.30
2018-08-09T07:14:49.959Z,56.10
2018-08-09T07:17:18.322Z,55.90
2018-08-09T07:19:46.739Z,55.60
2018-08-09T07:22:15.186Z,55.60
2018-08-09T07:24:43.783Z,55.40
2018-08-09T07:27:12.177Z,54.80
2018-08-09T07:29:40.814Z,54.50
2018-08-09T07:32:09.251Z,54.80
2018-08-09T07:34:37.738Z,54.40
2018-08-09T07:37:06.269Z,54.30
2018-08-09T07:39:34.734Z,53.90
2018-08-09T07:42:03.184Z,53.30
2018-08-09T07:44:31.704Z,52.50
2018-08-09T07:47:00.118Z,52.10
2018-08-09T07:49:28.596Z,52.00
2018-08-09T07:51:57.038Z,51.90
2018-08-09T07:54:25.706Z,51.70
2018-08-09T07:56:54.095Z,51.50
2018-08-09T07:59:22.498Z,51.80
2018-08-09T08:01:50.894Z,50.90
2018-08-09T08:04:19.427Z,50.60
2018-08-09T08:06:47.814Z,50.50
2018-08-09T08:09:16.272Z,49.90
2018-08-09T08:11:44.608Z,49.50
2018-08-09T08:14:13.068Z,49.30
2018-08-09T08:16:41.525Z,48.90
2018-08-09T08:19:09.958Z,49.20
2018-08-09T08:21:38.401Z,48.40
2018-08-09T08:24:06.955Z,48.40
2018-08-09T08:26:35.420Z,48.50
2018-08-09T08:29:04.132Z,48.40
2018-08-09T08:31:32.629Z,47.90
2018-08-09T08:34:01.076Z,47.80
2018-08-09T08:36:29.456Z,47.50
2018-08-09T08:38:57.972Z,47.50
2018-08-09T08:41:26.391Z,47.30
2018-08-09T08:43:54.771Z,47.10
2018-08-09T08:46:23.158Z,47.30
2018-08-09T08:48:51.578Z,46.80
2018-08-09T08:51:20.067Z,46.80
2018-08-09T08:53:48.751Z,46.40
2018-08-09T08:56:17.092Z,45.90
2018-08-09T08:58:45.544Z,45.20
2018-08-09T09:01:13.918Z,45.00
2018-08-09T09:03:42.455Z,44.30
2018-08-09T09:06:11.026Z,43.80
2018-08-09T09:08:39.533Z,43.90
2018-08-09T09:11:07.915Z,44.00
2018-08-09T09:13:36.401Z,44.20
2018-08-09T09:16:04.881Z,43.90
2018-08-09T09:18:33.327Z,43.90
2018-08-09T09:21:01.720Z,43.90
2018-08-09T09:23:30.116Z,43.70
2018-08-09T09:25:58.508Z,43.50
2018-08-09T09:28:26.900Z,43.60
2018-08-09T09:30:55.378Z,43.20
2018-08-09T09:33:23.945Z,43.30
2018-08-09T09:35:52.344Z,43.20
2018-08-09T09:38:20.674Z,43.50
2018-08-09T09:40:49.091Z,43.40
2018-08-09T09:43:17.512Z,43.40
2018-08-09T09:45:45.988Z,43.60
2018-08-09T09:48:14.362Z,43.50
2018-08-09T09:50:42.855Z,43.10
2018-08-09T09:53:11.261Z,42.80
2018-08-09T09:55:39.737Z,42.20
2018-08-09T09:58:08.073Z,42.10
2018-08-09T10:00:41.854Z,41.60
2018-08-09T10:03:10.343Z,41.70
2018-08-09T10:05:38.781Z,41.40
2018-08-09T10:08:07.193Z,40.50
2018-08-09T10:10:35.653Z,40.40
2018-08-09T10:13:04.074Z,40.10
2018-08-09T10:15:33.332Z,40.60
2018-08-09T10:18:01.733Z,40.80
2018-08-09T10:20:30.251Z,40.50
2018-08-09T10:22:58.639Z,39.80
2018-08-09T10:25:27.049Z,39.80
2018-08-09T10:27:55.438Z,40.30
2018-08-09T10:30:23.960Z,39.70
2018-08-09T10:32:52.513Z,40.20
2018-08-09T10:35:20.979Z,40.50
2018-08-09T10:37:49.419Z,40.30
2018-08-09T10:40:17.843Z,40.20
2018-08-09T10:42:46.300Z,39.20
2018-08-09T10:45:14.685Z,39.40
2018-08-09T10:47:43.087Z,39.20
2018-08-09T10:50:11.486Z,38.90
2018-08-09T10:52:40.025Z,38.70
2018-08-09T10:55:08.541Z,38.80
2018-08-09T10:57:36.960Z,38.50
2018-08-09T11:00:08.035Z,38.40
2018-08-09T11:02:36.502Z,38.40
2018-08-09T11:05:05.146Z,38.20
2018-08-09T11:07:33.515Z,37.50
2018-08-09T11:10:01.930Z,37.60
2018-08-09T11:12:30.352Z,37.10
2018-08-09T11:14:58.851Z,36.60
2018-08-09T11:17:27.261Z,37.30
2018-08-09T11:19:55.696Z,37.20
2018-08-09T11:22:24.279Z,36.40
2018-08-09T11:24:52.688Z,36.60
2018-08-09T11:27:21.132Z,36.40
2018-08-09T11:29:49.506Z,36.50
2018-08-09T11:32:17.979Z,36.70
2018-08-09T11:34:46.434Z,37.50
2018-08-09T11:37:14.860Z,36.10
2018-08-09T11:39:43.354Z,35.10
2018-08-09T11:42:11.787Z,35.10
2018-08-09T11:44:40.279Z,34.90
2018-08-09T11:47:08.754Z,34.30
2018-08-09T11:49:37.256Z,34.30
2018-08-09T11:52:05.728Z,33.30
2018-08-09T11:54:34.117Z,32.70
2018-08-09T11:57:02.581Z,32.70
2018-08-09T11:59:31.077Z,32.50
2018-08-09T12:01:59.460Z,32.70
2018-08-09T12:04:27.891Z,33.00
2018-08-09T12:06:56.325Z,32.50
2018-08-09T12:09:24.760Z,32.70
2018-08-09T12:11:53.189Z,32.20
2018-08-09T12:14:21.595Z,32.20
2018-08-09T12:16:50.038Z,32.30
2018-08-09T12:19:18.450Z,31.40
2018-08-09T12:21:46.876Z,31.40
2018-08-09T12:24:15.383Z,31.60
2018-08-09T12:26:43.870Z,31.00
2018-08-09T12:29:12.268Z,31.70
2018-08-09T12:31:40.673Z,31.80
2018-08-09T12:34:09.124Z,31.50
2018-08-09T12:36:37.658Z,30.90
2018-08-09T12:39:09.103Z,31.00
2018-08-09T12:41:37.552Z,30.90
2018-08-09T12:44:06.107Z,30.90
2018-08-09T12:46:34.510Z,30.70
2018-08-09T12:49:02.911Z,31.00
2018-08-09T12:51:31.336Z,30.60
2018-08-09T12:53:59.688Z,30.80
2018-08-09T12:56:28.259Z,30.90
2018-08-09T12:58:56.749Z,31.10
2018-08-09T13:01:25.187Z,29.70
2018-08-09T13:03:54.754Z,30.40
2018-08-09T13:06:23.158Z,30.10
2018-08-09T13:08:51.587Z,30.60
2018-08-09T13:11:20.271Z,29.50
2018-08-09T13:13:49.436Z,29.00
2018-08-09T13:16:18.041Z,29.10
2018-08-09T13:18:46.978Z,29.50
2018-08-09T13:21:16.071Z,29.80
2018-08-09T13:23:44.538Z,30.10
2018-08-09T13:26:13.108Z,29.80
2018-08-09T13:28:41.531Z,30.10
2018-08-09T13:31:10.071Z,29.50
2018-08-09T13:33:39.099Z,29.70
2018-08-09T13:36:07.697Z,29.90
2018-08-09T13:38:36.221Z,30.20
2018-08-09T13:41:04.733Z,29.90
2018-08-09T13:43:33.221Z,29.70
2018-08-09T13:46:01.685Z,29.20
2018-08-09T13:48:31.085Z,29.20
2018-08-09T13:50:59.574Z,29.00
2018-08-09T13:53:28.132Z,29.50
2018-08-09T13:55:56.527Z,29.30
2018-08-09T13:58:25.068Z,29.00
2018-08-09T14:00:53.578Z,28.80
2018-08-09T14:03:22.052Z,28.70
2018-08-09T14:05:50.485Z,28.80
2018-08-09T14:08:18.927Z,29.30
2018-08-09T14:10:47.437Z,29.40
2018-08-09T14:13:15.917Z,29.70
2018-08-09T14:15:44.461Z,29.90
2018-08-09T14:18:13.096Z,29.90
2018-08-09T14:20:41.532Z,28.40
2018-08-09T14:23:09.985Z,28.00
2018-08-09T14:25:38.465Z,28.00
2018-08-09T14:28:06.961Z,27.90
2018-08-09T14:30:35.350Z,28.80
2018-08-09T14:33:04.070Z,28.80
2018-08-09T14:35:32.457Z,28.90
2018-08-09T14:38:00.983Z,28.80
2018-08-09T14:40:29.517Z,28.50
2018-08-09T14:42:57.987Z,29.10
2018-08-09T14:45:26.406Z,28.80
2018-08-09T14:47:54.961Z,29.00
2018-08-09T14:50:23.381Z,28.70
2018-08-09T14:52:51.846Z,28.40
2018-08-09T14:55:20.310Z,27.70
2018-08-09T14:57:48.701Z,27.90
2018-08-09T15:00:19.562Z,28.00
2018-08-09T15:02:48.314Z,28.60
2018-08-09T15:05:17.270Z,28.80
2018-08-09T15:07:45.703Z,28.80
2018-08-09T15:10:14.928Z,28.70
2018-08-09T15:12:43.400Z,28.90
2018-08-09T15:15:12.342Z,29.20
2018-08-09T15:17:40.846Z,29.40
2018-08-09T15:20:11.153Z,29.60
2018-08-09T15:22:39.815Z,29.10
2018-08-09T15:25:09.853Z,29.50
2018-08-09T15:27:38.282Z,29.50
2018-08-09T15:30:16.272Z,29.90
2018-08-09T15:32:44.743Z,29.70
2018-08-09T15:35:13.608Z,29.60
2018-08-09T15:37:42.554Z,29.50
2018-08-09T15:40:12.051Z,30.00
2018-08-09T15:42:40.591Z,29.50
2018-08-09T15:45:12.830Z,29.20
2018-08-09T15:47:41.763Z,29.20
2018-08-09T15:50:13.327Z,29.40
2018-08-09T15:52:42.358Z,29.60
2018-08-09T15:55:11.032Z,29.70
2018-08-09T15:57:39.589Z,29.30
2018-08-09T16:00:11.208Z,29.30
2018-08-09T16:02:39.958Z,29.30
2018-08-09T16:05:09.140Z,29.50
2018-08-09T16:07:37.581Z,30.20
2018-08-09T16:10:09.652Z,30.00
2018-08-09T16:12:38.667Z,29.70
2018-08-09T16:15:08.101Z,29.80
2018-08-09T16:17:36.846Z,29.60
2018-08-09T16:20:06.820Z,29.70
2018-08-09T16:22:35.508Z,29.90
2018-08-09T16:25:04.993Z,30.10
2018-08-09T16:27:33.448Z,30.20
2018-08-09T16:30:01.912Z,30.20
2018-08-09T16:32:30.404Z,30.50
2018-08-09T16:34:58.871Z,30.50
2018-08-09T16:37:27.252Z,30.20
2018-08-09T16:39:55.682Z,30.40
2018-08-09T16:42:24.120Z,30.60
2018-08-09T16:44:52.543Z,30.90
2018-08-09T16:47:20.966Z,31.10
2018-08-09T16:49:49.510Z,30.90
2018-08-09T16:52:18.004Z,31.20
2018-08-09T16:54:46.442Z,31.10
2018-08-09T16:57:14.840Z,31.10
2018-08-09T16:59:43.238Z,31.20
2018-08-09T17:02:11.643Z,31.40
2018-08-09T17:04:40.123Z,31.30
2018-08-09T17:07:08.570Z,31.50
2018-08-09T17:09:36.968Z,31.50
2018-08-09T17:12:05.431Z,31.50
2018-08-09T17:17:12.178Z,31.60
2018-08-09T17:19:40.560Z,31.90
2018-08-09T17:22:08.965Z,32.30
2018-08-09T17:24:37.367Z,32.30
2018-08-09T17:27:05.846Z,32.50
2018-08-09T17:29:34.582Z,32.80
2018-08-09T17:32:02.960Z,33.10
2018-08-09T17:34:31.338Z,33.50
2018-08-09T17:36:59.726Z,34.00
2018-08-09T17:39:28.172Z,34.50
2018-08-09T17:41:56.552Z,34.80
2018-08-09T17:44:25.061Z,35.10
2018-08-09T17:46:53.539Z,35.40
2018-08-09T17:49:21.927Z,35.30
2018-08-09T17:51:50.274Z,35.60
2018-08-09T17:54:18.814Z,35.60
2018-08-09T17:56:47.220Z,35.50
2018-08-09T17:59:15.674Z,35.70
2018-08-09T18:01:44.055Z,35.80
2018-08-09T18:04:12.435Z,35.90
2018-08-09T18:06:40.981Z,35.70
2018-08-09T18:09:10.424Z,35.90
2018-08-09T18:11:39.140Z,36.00
2018-08-09T18:14:07.897Z,36.50
2018-08-09T18:16:36.780Z,36.00
2018-08-09T18:19:05.280Z,36.10
2018-08-09T18:21:33.671Z,36.20
2018-08-09T18:24:02.075Z,36.10
2018-08-09T18:26:30.607Z,36.30
2018-08-09T18:28:59.088Z,36.40
2018-08-09T18:31:27.479Z,36.50
2018-08-09T18:33:56.006Z,36.80
2018-08-09T18:36:24.509Z,36.80
2018-08-09T18:38:52.853Z,36.80
2018-08-09T18:41:21.343Z,36.90
2018-08-09T18:43:49.835Z,36.80
2018-08-09T18:46:18.367Z,36.50
2018-08-09T18:48:46.756Z,36.50
2018-08-09T18:51:15.212Z,36.40
2018-08-09T18:53:43.566Z,36.00
2018-08-09T18:56:11.983Z,36.20
2018-08-09T18:58:40.298Z,36.10
2018-08-09T19:01:09.193Z,36.10
2018-08-09T19:03:37.546Z,36.10
2018-08-09T19:06:06.150Z,36.20
2018-08-09T19:08:34.529Z,36.40
2018-08-09T19:11:03.005Z,36.40
2018-08-09T19:13:37.897Z,36.30
2018-08-09T19:16:06.265Z,36.30
2018-08-09T19:18:34.624Z,36.40
2018-08-09T19:21:03.053Z,36.50
2018-08-09T19:23:31.377Z,36.70
2018-08-09T19:26:00.025Z,36.90
2018-08-09T19:28:28.404Z,37.30
2018-08-09T19:30:56.733Z,37.60
2018-08-09T19:33:25.233Z,37.80
2018-08-09T19:35:53.643Z,38.30
2018-08-09T19:38:22.175Z,41.80
2018-08-09T19:40:50.565Z,45.40
2018-08-09T19:43:18.987Z,49.10
2018-08-09T19:45:47.658Z,51.40
2018-08-09T19:48:16.133Z,53.20
2018-08-09T19:50:45.035Z,55.30
2018-08-09T19:53:14.415Z,56.50
2018-08-09T19:55:42.898Z,57.40
2018-08-09T19:58:11.468Z,58.10
2018-08-09T20:00:39.795Z,59.00
2018-08-09T20:03:08.137Z,60.70
2018-08-09T20:05:36.605Z,64.00
2018-08-09T20:08:05.046Z,68.40
2018-08-09T20:10:33.427Z,71.70
2018-08-09T20:13:01.786Z,73.50
2018-08-09T20:15:30.152Z,73.30
2018-08-09T20:17:58.498Z,75.10
2018-08-09T20:20:26.930Z,76.00
2018-08-09T20:22:55.308Z,75.60
2018-08-09T20:25:24.571Z,75.10
2018-08-09T20:27:53.004Z,74.60
2018-08-09T20:30:24.793Z,74.60
2018-08-09T20:32:56.036Z,74.70
2018-08-09T20:35:25.100Z,74.00
2018-08-09T20:37:53.582Z,73.80
2018-08-09T20:40:25.028Z,75.00
2018-08-09T20:42:54.224Z,75.00
2018-08-09T20:45:23.557Z,75.60
2018-08-09T20:47:52.002Z,75.30
2018-08-09T20:50:25.296Z,75.10
2018-08-09T20:52:54.507Z,74.90
2018-08-09T20:55:23.466Z,76.80
2018-08-09T20:57:56.546Z,74.80
2018-08-09T21:00:31.681Z,76.20
2018-08-09T21:03:02.567Z,76.30
2018-08-09T21:05:36.971Z,77.80
2018-08-09T21:08:07.380Z,78.60
2018-08-09T21:10:37.416Z,80.40
2018-08-09T21:13:05.904Z,80.00
2018-08-09T21:15:34.373Z,80.80
2018-08-09T21:18:03.236Z,81.00
2018-08-09T21:20:31.853Z,81.00
2018-08-09T21:23:00.945Z,80.60
2018-08-09T21:25:29.671Z,81.30
2018-08-09T21:27:59.416Z,80.90
2018-08-09T21:30:27.995Z,81.90
2018-08-09T21:32:56.690Z,80.70
2018-08-09T21:35:26.073Z,81.30
2018-08-09T21:37:54.430Z,81.30
2018-08-09T21:40:22.779Z,81.20
2018-08-09T21:42:52.416Z,80.60
2018-08-09T21:45:20.845Z,82.00
2018-08-09T21:47:49.526Z,82.60
2018-08-09T21:50:22.134Z,83.60
2018-08-09T21:52:51.586Z,84.20
2018-08-09T21:55:19.881Z,86.20
2018-08-09T21:57:49.388Z,85.60
2018-08-09T22:00:59.839Z,85.50
2018-08-09T22:03:30.516Z,85.50
2018-08-09T22:06:04.398Z,85.90
2018-08-09T22:08:38.307Z,86.80
2018-08-09T22:11:13.744Z,88.10
2018-08-09T22:13:47.586Z,88.40
2018-08-09T22:16:21.296Z,88.50
2018-08-09T22:18:55.123Z,89.50
2018-08-09T22:21:28.789Z,89.10
2018-08-09T22:23:57.851Z,89.20
2018-08-09T22:26:26.189Z,89.10
2018-08-09T22:28:55.911Z,88.90
2018-08-09T22:31:24.223Z,89.50
2018-08-09T22:33:52.611Z,89.30
2018-08-09T22:36:20.977Z,88.70
2018-08-09T22:38:49.429Z,88.50
2018-08-09T22:41:17.932Z,88.90
2018-08-09T22:43:46.253Z,89.40
2018-08-09T22:46:14.971Z,89.70
2018-08-09T22:48:44.984Z,89.80
2018-08-09T22:51:13.322Z,89.80
2018-08-09T22:53:41.685Z,89.90
2018-08-09T22:56:09.984Z,89.60
2018-08-09T22:58:38.397Z,89.40
2018-08-09T23:01:06.782Z,89.10
2018-08-09T23:03:35.200Z,88.80
2018-08-09T23:06:03.574Z,88.60
2018-08-09T23:08:31.983Z,88.50
2018-08-09T23:11:00.368Z,88.40
2018-08-09T23:13:28.783Z,88.60
2018-08-09T23:15:57.173Z,88.40
2018-08-09T23:18:25.599Z,87.90
2018-08-09T23:20:53.984Z,87.80
2018-08-09T23:23:22.391Z,87.60
2018-08-09T23:25:50.749Z,86.60
2018-08-09T23:28:19.191Z,86.80
2018-08-09T23:30:47.600Z,87.40
2018-08-09T23:33:17.670Z,87.50
2018-08-09T23:35:46.125Z,87.70
2018-08-09T23:38:14.511Z,87.70
2018-08-09T23:40:42.883Z,87.40
2018-08-09T23:43:11.700Z,86.90
2018-08-09T23:45:40.088Z,86.90
2018-08-09T23:48:08.509Z,87.50
2018-08-09T23:50:36.854Z,86.90
2018-08-09T23:53:05.227Z,87.10
2018-08-09T23:55:33.595Z,87.20
2018-08-09T23:58:01.966Z,87.70
